sensor_id;sensor_type;location;lat;lon;timestamp;temperature;humidity
70145;DHT22;57510;51.068;3.872;2022-09-09T00:02:19;15.70;99.40
70145;DHT22;57510;51.068;3.872;2022-09-09T00:10:39;15.70;99.40
70145;DHT22;57510;51.068;3.872;2022-09-09T00:13:32;15.70;99.40
70145;DHT22;57510;51.068;3.872;2022-09-09T00:16:15;15.70;99.40
70145;DHT22;57510;51.068;3.872;2022-09-09T00:19:27;15.80;99.40
70145;DHT22;57510;51.068;3.872;2022-09-09T00:22:19;15.80;99.20
70145;DHT22;57510;51.068;3.872;2022-09-09T00:24:52;15.80;99.20
70145;DHT22;57510;51.068;3.872;2022-09-09T00:27:32;15.90;99.20
70145;DHT22;57510;51.068;3.872;2022-09-09T00:30:31;15.90;99.10
70145;DHT22;57510;51.068;3.872;2022-09-09T00:33:01;15.90;99.10
70145;DHT22;57510;51.068;3.872;2022-09-09T00:35:59;15.90;98.90
70145;DHT22;57510;51.068;3.872;2022-09-09T00:44:01;15.80;98.80
70145;DHT22;57510;51.068;3.872;2022-09-09T00:50:03;15.70;98.90
70145;DHT22;57510;51.068;3.872;2022-09-09T00:58:16;15.50;99.10
70145;DHT22;57510;51.068;3.872;2022-09-09T01:00:45;15.60;99.10
70145;DHT22;57510;51.068;3.872;2022-09-09T01:03:43;15.60;99.00
70145;DHT22;57510;51.068;3.872;2022-09-09T01:09:57;15.40;99.10
70145;DHT22;57510;51.068;3.872;2022-09-09T01:12:41;15.40;99.20
70145;DHT22;57510;51.068;3.872;2022-09-09T01:18:14;15.40;99.30
70145;DHT22;57510;51.068;3.872;2022-09-09T01:24:03;15.40;99.30
70145;DHT22;57510;51.068;3.872;2022-09-09T01:26:42;15.40;99.30
70145;DHT22;57510;51.068;3.872;2022-09-09T01:29:13;15.40;99.20
70145;DHT22;57510;51.068;3.872;2022-09-09T01:31:53;15.40;99.20
70145;DHT22;57510;51.068;3.872;2022-09-09T01:34:20;15.30;99.20
70145;DHT22;57510;51.068;3.872;2022-09-09T01:37:12;15.30;99.30
70145;DHT22;57510;51.068;3.872;2022-09-09T01:39:43;15.30;99.30
70145;DHT22;57510;51.068;3.872;2022-09-09T01:42:12;15.30;99.20
70145;DHT22;57510;51.068;3.872;2022-09-09T01:44:38;15.30;99.30
70145;DHT22;57510;51.068;3.872;2022-09-09T01:47:05;15.30;99.30
70145;DHT22;57510;51.068;3.872;2022-09-09T01:49:31;15.30;99.30
70145;DHT22;57510;51.068;3.872;2022-09-09T01:52:01;15.30;99.40
70145;DHT22;57510;51.068;3.872;2022-09-09T02:07:19;15.20;99.30
70145;DHT22;57510;51.068;3.872;2022-09-09T02:09:50;15.20;99.40
70145;DHT22;57510;51.068;3.872;2022-09-09T02:12:19;15.20;99.30
70145;DHT22;57510;51.068;3.872;2022-09-09T02:15:01;15.20;99.50
70145;DHT22;57510;51.068;3.872;2022-09-09T02:17:36;15.20;99.50
70145;DHT22;57510;51.068;3.872;2022-09-09T02:20:11;15.30;99.60
70145;DHT22;57510;51.068;3.872;2022-09-09T02:22:48;15.20;99.40
70145;DHT22;57510;51.068;3.872;2022-09-09T02:25:19;15.30;99.50
70145;DHT22;57510;51.068;3.872;2022-09-09T02:27:47;15.30;99.50
70145;DHT22;57510;51.068;3.872;2022-09-09T02:30:18;15.30;99.50
70145;DHT22;57510;51.068;3.872;2022-09-09T02:32:46;15.40;99.50
70145;DHT22;57510;51.068;3.872;2022-09-09T02:35:17;15.40;99.50
70145;DHT22;57510;51.068;3.872;2022-09-09T02:37:46;15.40;99.40
70145;DHT22;57510;51.068;3.872;2022-09-09T02:40:15;15.40;99.40
70145;DHT22;57510;51.068;3.872;2022-09-09T02:42:45;15.40;99.40
70145;DHT22;57510;51.068;3.872;2022-09-09T02:55:24;15.60;99.20
70145;DHT22;57510;51.068;3.872;2022-09-09T02:57:54;15.60;99.20
70145;DHT22;57510;51.068;3.872;2022-09-09T03:00:34;15.60;99.10
70145;DHT22;57510;51.068;3.872;2022-09-09T03:03:03;15.50;99.20
70145;DHT22;57510;51.068;3.872;2022-09-09T03:05:40;15.50;99.10
70145;DHT22;57510;51.068;3.872;2022-09-09T03:08:06;15.50;99.20
70145;DHT22;57510;51.068;3.872;2022-09-09T03:10:33;15.50;99.20
70145;DHT22;57510;51.068;3.872;2022-09-09T03:13:12;15.50;99.20
70145;DHT22;57510;51.068;3.872;2022-09-09T03:35:49;15.40;99.20
70145;DHT22;57510;51.068;3.872;2022-09-09T03:38:32;15.40;99.20
70145;DHT22;57510;51.068;3.872;2022-09-09T03:41:14;15.40;99.30
70145;DHT22;57510;51.068;3.872;2022-09-09T03:43:44;15.50;99.20
70145;DHT22;57510;51.068;3.872;2022-09-09T03:46:18;15.40;99.20
70145;DHT22;57510;51.068;3.872;2022-09-09T03:48:55;15.50;99.40
70145;DHT22;57510;51.068;3.872;2022-09-09T03:51:21;15.50;99.20
70145;DHT22;57510;51.068;3.872;2022-09-09T03:53:47;15.60;99.20
70145;DHT22;57510;51.068;3.872;2022-09-09T03:56:22;15.60;99.10
70145;DHT22;57510;51.068;3.872;2022-09-09T03:58:48;15.70;99.10
70145;DHT22;57510;51.068;3.872;2022-09-09T04:01:16;15.70;99.00
70145;DHT22;57510;51.068;3.872;2022-09-09T04:03:43;15.80;99.00
70145;DHT22;57510;51.068;3.872;2022-09-09T04:06:11;15.80;98.80
70145;DHT22;57510;51.068;3.872;2022-09-09T04:08:39;15.80;98.80
70145;DHT22;57510;51.068;3.872;2022-09-09T04:11:16;15.80;98.60
70145;DHT22;57510;51.068;3.872;2022-09-09T04:13:54;15.80;98.60
70145;DHT22;57510;51.068;3.872;2022-09-09T04:16:23;15.80;98.70
70145;DHT22;57510;51.068;3.872;2022-09-09T04:18:49;15.80;98.80
70145;DHT22;57510;51.068;3.872;2022-09-09T04:21:30;15.80;98.50
70145;DHT22;57510;51.068;3.872;2022-09-09T04:24:19;15.70;98.70
70145;DHT22;57510;51.068;3.872;2022-09-09T04:26:56;15.70;98.80
70145;DHT22;57510;51.068;3.872;2022-09-09T04:29:22;15.70;98.80
70145;DHT22;57510;51.068;3.872;2022-09-09T04:31:50;15.70;98.80
70145;DHT22;57510;51.068;3.872;2022-09-09T04:34:27;15.70;98.80
70145;DHT22;57510;51.068;3.872;2022-09-09T04:47:02;15.80;98.60
70145;DHT22;57510;51.068;3.872;2022-09-09T04:50:02;15.90;98.80
70145;DHT22;57510;51.068;3.872;2022-09-09T04:56:13;16.00;98.50
70145;DHT22;57510;51.068;3.872;2022-09-09T04:58:40;15.90;98.50
70145;DHT22;57510;51.068;3.872;2022-09-09T05:07:44;16.00;98.50
70145;DHT22;57510;51.068;3.872;2022-09-09T05:10:11;16.00;98.30
70145;DHT22;57510;51.068;3.872;2022-09-09T05:13:03;16.00;98.30
70145;DHT22;57510;51.068;3.872;2022-09-09T05:15:29;16.00;98.30
70145;DHT22;57510;51.068;3.872;2022-09-09T05:20:59;16.00;98.50
70145;DHT22;57510;51.068;3.872;2022-09-09T05:23:44;16.00;98.30
70145;DHT22;57510;51.068;3.872;2022-09-09T05:29:30;16.00;98.30
70145;DHT22;57510;51.068;3.872;2022-09-09T05:32:14;16.10;98.20
70145;DHT22;57510;51.068;3.872;2022-09-09T05:34:41;16.10;98.20
70145;DHT22;57510;51.068;3.872;2022-09-09T05:37:38;16.10;98.10
70145;DHT22;57510;51.068;3.872;2022-09-09T05:40:08;16.20;98.20
70145;DHT22;57510;51.068;3.872;2022-09-09T05:42:35;16.20;98.00
70145;DHT22;57510;51.068;3.872;2022-09-09T05:51:18;16.20;97.80
70145;DHT22;57510;51.068;3.872;2022-09-09T05:53:58;16.30;97.80
70145;DHT22;57510;51.068;3.872;2022-09-09T05:56:27;16.30;97.70
70145;DHT22;57510;51.068;3.872;2022-09-09T05:58:54;16.40;97.80
70145;DHT22;57510;51.068;3.872;2022-09-09T06:01:25;16.40;97.50
70145;DHT22;57510;51.068;3.872;2022-09-09T06:03:52;16.30;97.50
70145;DHT22;57510;51.068;3.872;2022-09-09T06:06:31;16.50;97.70
70145;DHT22;57510;51.068;3.872;2022-09-09T06:08:58;16.60;97.40
70145;DHT22;57510;51.068;3.872;2022-09-09T06:11:27;16.60;97.30
70145;DHT22;57510;51.068;3.872;2022-09-09T06:17:40;16.70;97.10
70145;DHT22;57510;51.068;3.872;2022-09-09T06:26:33;17.10;96.80
70145;DHT22;57510;51.068;3.872;2022-09-09T06:32:42;17.00;97.20
70145;DHT22;57510;51.068;3.872;2022-09-09T06:35:08;16.80;97.60
70145;DHT22;57510;51.068;3.872;2022-09-09T06:37:34;16.70;97.80
70145;DHT22;57510;51.068;3.872;2022-09-09T06:53:33;16.70;98.30
70145;DHT22;57510;51.068;3.872;2022-09-09T06:59:09;16.90;98.00
70145;DHT22;57510;51.068;3.872;2022-09-09T07:01:38;17.00;97.90
70145;DHT22;57510;51.068;3.872;2022-09-09T07:04:06;17.30;97.40
70145;DHT22;57510;51.068;3.872;2022-09-09T07:06:35;17.40;97.40
70145;DHT22;57510;51.068;3.872;2022-09-09T07:09:12;17.50;97.20
70145;DHT22;57510;51.068;3.872;2022-09-09T07:12:03;17.50;96.80
70145;DHT22;57510;51.068;3.872;2022-09-09T07:14:40;17.60;97.00
70145;DHT22;57510;51.068;3.872;2022-09-09T07:17:28;17.60;96.60
70145;DHT22;57510;51.068;3.872;2022-09-09T07:20:03;17.60;96.70
70145;DHT22;57510;51.068;3.872;2022-09-09T07:22:43;17.70;96.60
70145;DHT22;57510;51.068;3.872;2022-09-09T07:25:19;17.70;95.90
70145;DHT22;57510;51.068;3.872;2022-09-09T07:27:48;17.60;96.50
70145;DHT22;57510;51.068;3.872;2022-09-09T07:30:17;17.50;96.30
70145;DHT22;57510;51.068;3.872;2022-09-09T07:32:43;17.60;96.60
70145;DHT22;57510;51.068;3.872;2022-09-09T07:35:12;17.60;96.10
70145;DHT22;57510;51.068;3.872;2022-09-09T07:37:47;17.60;96.40
70145;DHT22;57510;51.068;3.872;2022-09-09T07:40:13;17.80;96.20
70145;DHT22;57510;51.068;3.872;2022-09-09T07:45:14;17.90;96.20
70145;DHT22;57510;51.068;3.872;2022-09-09T07:47:43;18.30;95.70
70145;DHT22;57510;51.068;3.872;2022-09-09T07:50:10;18.40;95.80
70145;DHT22;57510;51.068;3.872;2022-09-09T07:52:37;18.60;95.50
70145;DHT22;57510;51.068;3.872;2022-09-09T07:55:02;18.90;95.40
70145;DHT22;57510;51.068;3.872;2022-09-09T07:57:29;18.90;94.60
70145;DHT22;57510;51.068;3.872;2022-09-09T08:00:07;18.90;94.30
70145;DHT22;57510;51.068;3.872;2022-09-09T08:02:33;18.90;94.70
70145;DHT22;57510;51.068;3.872;2022-09-09T08:04:58;19.00;94.00
70145;DHT22;57510;51.068;3.872;2022-09-09T08:07:24;18.90;94.40
70145;DHT22;57510;51.068;3.872;2022-09-09T08:09:50;19.00;94.50
70145;DHT22;57510;51.068;3.872;2022-09-09T08:15:39;19.30;94.00
70145;DHT22;57510;51.068;3.872;2022-09-09T08:28:23;18.40;95.20
70145;DHT22;57510;51.068;3.872;2022-09-09T08:34:11;18.10;95.50
70145;DHT22;57510;51.068;3.872;2022-09-09T08:56:44;17.80;95.70
70145;DHT22;57510;51.068;3.872;2022-09-09T09:02:56;17.90;95.70
70145;DHT22;57510;51.068;3.872;2022-09-09T09:05:45;17.90;95.80
70145;DHT22;57510;51.068;3.872;2022-09-09T09:11:56;18.20;95.30
70145;DHT22;57510;51.068;3.872;2022-09-09T09:14:37;18.20;95.10
70145;DHT22;57510;51.068;3.872;2022-09-09T09:27:36;18.20;95.00
70145;DHT22;57510;51.068;3.872;2022-09-09T09:39:51;19.20;94.00
70145;DHT22;57510;51.068;3.872;2022-09-09T09:46:22;19.40;93.50
70145;DHT22;57510;51.068;3.872;2022-09-09T09:52:03;20.10;92.80
70145;DHT22;57510;51.068;3.872;2022-09-09T10:01:43;20.10;91.70
70145;DHT22;57510;51.068;3.872;2022-09-09T10:07:33;20.00;92.10
70145;DHT22;57510;51.068;3.872;2022-09-09T10:44:21;20.50;91.10
70145;DHT22;57510;51.068;3.872;2022-09-09T10:52:17;20.70;90.80
70145;DHT22;57510;51.068;3.872;2022-09-09T10:55:02;20.70;90.70
70145;DHT22;57510;51.068;3.872;2022-09-09T10:57:56;20.90;91.00
70145;DHT22;57510;51.068;3.872;2022-09-09T11:00:25;21.50;90.30
70145;DHT22;57510;51.068;3.872;2022-09-09T11:03:02;21.60;89.60
70145;DHT22;57510;51.068;3.872;2022-09-09T11:05:44;21.70;89.30
70145;DHT22;57510;51.068;3.872;2022-09-09T11:08:19;21.70;88.80
70145;DHT22;57510;51.068;3.872;2022-09-09T11:10:51;21.60;88.20
70145;DHT22;57510;51.068;3.872;2022-09-09T11:13:24;21.50;89.10
70145;DHT22;57510;51.068;3.872;2022-09-09T11:15:57;21.20;89.00
70145;DHT22;57510;51.068;3.872;2022-09-09T11:18:24;21.10;90.00
70145;DHT22;57510;51.068;3.872;2022-09-09T11:20:57;21.10;89.00
70145;DHT22;57510;51.068;3.872;2022-09-09T11:23:40;21.30;89.20
70145;DHT22;57510;51.068;3.872;2022-09-09T11:26:12;21.10;89.20
70145;DHT22;57510;51.068;3.872;2022-09-09T11:28:59;21.10;89.00
70145;DHT22;57510;51.068;3.872;2022-09-09T11:31:43;21.60;88.40
70145;DHT22;57510;51.068;3.872;2022-09-09T11:34:23;21.70;87.90
70145;DHT22;57510;51.068;3.872;2022-09-09T11:42:20;22.00;87.30
70145;DHT22;57510;51.068;3.872;2022-09-09T11:44:46;22.20;85.90
70145;DHT22;57510;51.068;3.872;2022-09-09T11:49:51;22.70;85.60
70145;DHT22;57510;51.068;3.872;2022-09-09T11:52:36;22.70;84.50
70145;DHT22;57510;51.068;3.872;2022-09-09T11:55:11;22.90;84.60
70145;DHT22;57510;51.068;3.872;2022-09-09T11:57:39;22.60;84.20
70145;DHT22;57510;51.068;3.872;2022-09-09T12:00:06;22.60;84.80
70145;DHT22;57510;51.068;3.872;2022-09-09T12:02:33;22.60;85.00
70145;DHT22;57510;51.068;3.872;2022-09-09T12:05:22;22.40;84.70
70145;DHT22;57510;51.068;3.872;2022-09-09T12:08:04;22.20;85.30
70145;DHT22;57510;51.068;3.872;2022-09-09T12:10:56;22.10;85.00
70145;DHT22;57510;51.068;3.872;2022-09-09T12:13:51;21.70;86.60
70145;DHT22;57510;51.068;3.872;2022-09-09T12:30:08;22.50;84.90
70145;DHT22;57510;51.068;3.872;2022-09-09T12:33:18;22.40;85.40
70145;DHT22;57510;51.068;3.872;2022-09-09T12:59:00;22.90;84.60
70145;DHT22;57510;51.068;3.872;2022-09-09T13:01:30;23.20;83.40
70145;DHT22;57510;51.068;3.872;2022-09-09T13:03:59;23.30;83.90
70145;DHT22;57510;51.068;3.872;2022-09-09T13:06:38;23.20;83.00
70145;DHT22;57510;51.068;3.872;2022-09-09T13:09:30;22.80;82.20
70145;DHT22;57510;51.068;3.872;2022-09-09T13:11:57;22.40;83.70
70145;DHT22;57510;51.068;3.872;2022-09-09T13:14:32;22.40;84.40
70145;DHT22;57510;51.068;3.872;2022-09-09T13:17:02;22.50;85.00
70145;DHT22;57510;51.068;3.872;2022-09-09T13:19:50;22.80;85.00
70145;DHT22;57510;51.068;3.872;2022-09-09T13:22:22;22.80;83.70
70145;DHT22;57510;51.068;3.872;2022-09-09T13:25:21;22.40;84.70
70145;DHT22;57510;51.068;3.872;2022-09-09T13:28:18;22.40;85.90
70145;DHT22;57510;51.068;3.872;2022-09-09T13:33:41;23.10;85.60
70145;DHT22;57510;51.068;3.872;2022-09-09T13:36:08;23.20;85.80
70145;DHT22;57510;51.068;3.872;2022-09-09T13:38:54;23.30;84.50
70145;DHT22;57510;51.068;3.872;2022-09-09T13:41:34;23.60;83.50
70145;DHT22;57510;51.068;3.872;2022-09-09T13:44:02;24.40;83.70
70145;DHT22;57510;51.068;3.872;2022-09-09T13:49:19;24.80;77.20
70145;DHT22;57510;51.068;3.872;2022-09-09T13:51:50;24.80;77.40
70145;DHT22;57510;51.068;3.872;2022-09-09T13:54:20;25.10;76.80
70145;DHT22;57510;51.068;3.872;2022-09-09T13:56:46;24.80;77.20
70145;DHT22;57510;51.068;3.872;2022-09-09T13:59:24;24.50;76.90
70145;DHT22;57510;51.068;3.872;2022-09-09T14:01:53;24.40;77.30
70145;DHT22;57510;51.068;3.872;2022-09-09T14:04:19;24.20;77.90
70145;DHT22;57510;51.068;3.872;2022-09-09T14:06:47;24.30;77.70
70145;DHT22;57510;51.068;3.872;2022-09-09T14:12:40;24.10;78.70
70145;DHT22;57510;51.068;3.872;2022-09-09T14:15:08;24.10;78.20
70145;DHT22;57510;51.068;3.872;2022-09-09T14:24:19;24.10;77.90
70145;DHT22;57510;51.068;3.872;2022-09-09T14:26:54;23.70;79.00
70145;DHT22;57510;51.068;3.872;2022-09-09T14:32:42;23.30;79.70
70145;DHT22;57510;51.068;3.872;2022-09-09T14:35:13;22.90;81.60
70145;DHT22;57510;51.068;3.872;2022-09-09T14:47:45;24.00;81.20
70145;DHT22;57510;51.068;3.872;2022-09-09T14:50:23;25.80;77.30
70145;DHT22;57510;51.068;3.872;2022-09-09T14:53:22;27.50;73.70
70145;DHT22;57510;51.068;3.872;2022-09-09T15:09:22;26.50;69.10
70145;DHT22;57510;51.068;3.872;2022-09-09T15:15:08;24.00;75.50
70145;DHT22;57510;51.068;3.872;2022-09-09T15:17:34;23.50;77.10
70145;DHT22;57510;51.068;3.872;2022-09-09T15:20:20;23.40;78.90
70145;DHT22;57510;51.068;3.872;2022-09-09T15:22:50;23.50;80.00
70145;DHT22;57510;51.068;3.872;2022-09-09T15:25:25;23.70;78.60
70145;DHT22;57510;51.068;3.872;2022-09-09T15:27:54;23.70;78.60
70145;DHT22;57510;51.068;3.872;2022-09-09T15:30:30;23.90;79.00
70145;DHT22;57510;51.068;3.872;2022-09-09T15:33:07;24.00;78.30
70145;DHT22;57510;51.068;3.872;2022-09-09T15:35:41;24.00;78.60
70145;DHT22;57510;51.068;3.872;2022-09-09T15:38:22;23.90;78.20
70145;DHT22;57510;51.068;3.872;2022-09-09T15:40:55;23.70;78.90
70145;DHT22;57510;51.068;3.872;2022-09-09T15:43:44;23.50;79.20
70145;DHT22;57510;51.068;3.872;2022-09-09T15:46:46;23.30;80.20
70145;DHT22;57510;51.068;3.872;2022-09-09T15:49:18;23.40;81.00
70145;DHT22;57510;51.068;3.872;2022-09-09T15:51:46;23.00;80.30
70145;DHT22;57510;51.068;3.872;2022-09-09T15:54:15;22.60;81.00
70145;DHT22;57510;51.068;3.872;2022-09-09T15:56:42;22.30;82.50
70145;DHT22;57510;51.068;3.872;2022-09-09T15:59:09;22.10;83.40
70145;DHT22;57510;51.068;3.872;2022-09-09T16:01:39;21.90;84.50
70145;DHT22;57510;51.068;3.872;2022-09-09T16:04:08;21.70;85.70
70145;DHT22;57510;51.068;3.872;2022-09-09T16:06:34;21.70;86.00
70145;DHT22;57510;51.068;3.872;2022-09-09T16:09:12;21.90;86.40
70145;DHT22;57510;51.068;3.872;2022-09-09T16:11:38;22.20;86.00
70145;DHT22;57510;51.068;3.872;2022-09-09T16:14:05;22.50;83.90
70145;DHT22;57510;51.068;3.872;2022-09-09T16:16:38;22.80;83.50
70145;DHT22;57510;51.068;3.872;2022-09-09T16:19:10;22.70;82.10
70145;DHT22;57510;51.068;3.872;2022-09-09T16:21:39;22.60;80.70
70145;DHT22;57510;51.068;3.872;2022-09-09T16:24:14;22.70;81.30
70145;DHT22;57510;51.068;3.872;2022-09-09T16:26:43;23.00;80.50
70145;DHT22;57510;51.068;3.872;2022-09-09T16:29:14;23.20;79.10
70145;DHT22;57510;51.068;3.872;2022-09-09T16:31:45;23.30;78.20
70145;DHT22;57510;51.068;3.872;2022-09-09T16:34:18;23.50;78.20
70145;DHT22;57510;51.068;3.872;2022-09-09T16:36:47;24.00;76.20
70145;DHT22;57510;51.068;3.872;2022-09-09T16:39:19;24.50;75.30
70145;DHT22;57510;51.068;3.872;2022-09-09T16:41:46;24.70;75.00
70145;DHT22;57510;51.068;3.872;2022-09-09T16:44:14;25.00;73.30
70145;DHT22;57510;51.068;3.872;2022-09-09T16:46:42;24.70;72.70
70145;DHT22;57510;51.068;3.872;2022-09-09T16:49:11;24.40;74.20
70145;DHT22;57510;51.068;3.872;2022-09-09T16:51:42;23.90;74.70
70145;DHT22;57510;51.068;3.872;2022-09-09T16:54:09;23.60;75.90
70145;DHT22;57510;51.068;3.872;2022-09-09T16:56:51;23.40;76.20
70145;DHT22;57510;51.068;3.872;2022-09-09T16:59:19;23.20;77.00
70145;DHT22;57510;51.068;3.872;2022-09-09T17:01:57;23.00;77.60
70145;DHT22;57510;51.068;3.872;2022-09-09T17:04:27;22.90;77.30
70145;DHT22;57510;51.068;3.872;2022-09-09T17:06:54;22.70;79.60
70145;DHT22;57510;51.068;3.872;2022-09-09T17:09:25;22.60;80.50
70145;DHT22;57510;51.068;3.872;2022-09-09T17:12:07;22.40;80.60
70145;DHT22;57510;51.068;3.872;2022-09-09T17:14:34;22.20;80.40
70145;DHT22;57510;51.068;3.872;2022-09-09T17:17:06;22.10;81.70
70145;DHT22;57510;51.068;3.872;2022-09-09T17:22:43;21.70;89.90
70145;DHT22;57510;51.068;3.872;2022-09-09T17:25:11;21.00;93.60
70145;DHT22;57510;51.068;3.872;2022-09-09T17:27:37;20.30;95.90
70145;DHT22;57510;51.068;3.872;2022-09-09T17:30:03;19.80;97.10
70145;DHT22;57510;51.068;3.872;2022-09-09T17:32:31;19.30;98.10
70145;DHT22;57510;51.068;3.872;2022-09-09T17:35:12;18.90;98.70
70145;DHT22;57510;51.068;3.872;2022-09-09T17:37:45;18.70;99.30
70145;DHT22;57510;51.068;3.872;2022-09-09T17:40:18;18.70;99.30
70145;DHT22;57510;51.068;3.872;2022-09-09T17:42:59;18.70;99.70
70145;DHT22;57510;51.068;3.872;2022-09-09T17:45:41;18.60;99.90
70145;DHT22;57510;51.068;3.872;2022-09-09T17:48:06;18.70;99.90
70145;DHT22;57510;51.068;3.872;2022-09-09T17:50:32;18.70;99.90
70145;DHT22;57510;51.068;3.872;2022-09-09T17:53:03;18.70;99.90
70145;DHT22;57510;51.068;3.872;2022-09-09T17:55:29;18.80;99.90
70145;DHT22;57510;51.068;3.872;2022-09-09T17:57:55;18.80;99.90
70145;DHT22;57510;51.068;3.872;2022-09-09T18:00:33;18.70;99.90
70145;DHT22;57510;51.068;3.872;2022-09-09T18:03:00;18.60;99.90
70145;DHT22;57510;51.068;3.872;2022-09-09T18:05:30;18.60;99.90
70145;DHT22;57510;51.068;3.872;2022-09-09T18:07:56;18.60;99.90
70145;DHT22;57510;51.068;3.872;2022-09-09T18:10:21;18.50;99.90
70145;DHT22;57510;51.068;3.872;2022-09-09T18:13:06;18.40;99.90
70145;DHT22;57510;51.068;3.872;2022-09-09T18:15:37;18.20;99.90
70145;DHT22;57510;51.068;3.872;2022-09-09T18:18:03;18.20;99.90
70145;DHT22;57510;51.068;3.872;2022-09-09T18:20:31;18.00;99.90
70145;DHT22;57510;51.068;3.872;2022-09-09T18:22:57;18.00;99.90
70145;DHT22;57510;51.068;3.872;2022-09-09T18:25:23;17.90;99.90
70145;DHT22;57510;51.068;3.872;2022-09-09T18:27:49;17.80;99.90
70145;DHT22;57510;51.068;3.872;2022-09-09T18:30:16;17.80;99.90
70145;DHT22;57510;51.068;3.872;2022-09-09T18:32:42;17.70;99.90
70145;DHT22;57510;51.068;3.872;2022-09-09T18:35:11;17.70;99.90
70145;DHT22;57510;51.068;3.872;2022-09-09T18:37:38;17.70;99.90
70145;DHT22;57510;51.068;3.872;2022-09-09T18:40:06;17.70;99.90
70145;DHT22;57510;51.068;3.872;2022-09-09T18:42:31;17.60;99.90
70145;DHT22;57510;51.068;3.872;2022-09-09T18:44:58;17.50;99.90
70145;DHT22;57510;51.068;3.872;2022-09-09T18:47:26;17.40;99.90
70145;DHT22;57510;51.068;3.872;2022-09-09T18:49:51;17.30;99.90
70145;DHT22;57510;51.068;3.872;2022-09-09T18:52:24;17.20;99.90
70145;DHT22;57510;51.068;3.872;2022-09-09T18:55:18;17.20;99.90
70145;DHT22;57510;51.068;3.872;2022-09-09T18:57:52;17.10;99.90
70145;DHT22;57510;51.068;3.872;2022-09-09T19:00:19;17.10;99.90
70145;DHT22;57510;51.068;3.872;2022-09-09T19:02:54;17.00;99.90
70145;DHT22;57510;51.068;3.872;2022-09-09T19:05:25;17.00;99.90
70145;DHT22;57510;51.068;3.872;2022-09-09T19:07:51;16.90;99.90
70145;DHT22;57510;51.068;3.872;2022-09-09T19:10:17;16.90;99.90
70145;DHT22;57510;51.068;3.872;2022-09-09T19:12:43;16.90;99.90
70145;DHT22;57510;51.068;3.872;2022-09-09T19:15:10;16.90;99.90
70145;DHT22;57510;51.068;3.872;2022-09-09T19:17:36;16.80;99.90
70145;DHT22;57510;51.068;3.872;2022-09-09T19:20:03;16.80;99.90
70145;DHT22;57510;51.068;3.872;2022-09-09T19:22:43;16.70;99.90
70145;DHT22;57510;51.068;3.872;2022-09-09T19:25:17;16.70;99.90
70145;DHT22;57510;51.068;3.872;2022-09-09T19:27:43;16.70;99.90
70145;DHT22;57510;51.068;3.872;2022-09-09T19:30:09;16.70;99.90
70145;DHT22;57510;51.068;3.872;2022-09-09T19:32:42;16.70;99.90
70145;DHT22;57510;51.068;3.872;2022-09-09T19:35:13;16.60;99.90
70145;DHT22;57510;51.068;3.872;2022-09-09T19:37:42;16.60;99.90
70145;DHT22;57510;51.068;3.872;2022-09-09T19:40:08;16.50;99.90
70145;DHT22;57510;51.068;3.872;2022-09-09T19:42:37;16.50;99.90
70145;DHT22;57510;51.068;3.872;2022-09-09T19:45:06;16.50;99.90
70145;DHT22;57510;51.068;3.872;2022-09-09T19:47:41;16.50;99.90
70145;DHT22;57510;51.068;3.872;2022-09-09T19:50:15;16.40;99.90
70145;DHT22;57510;51.068;3.872;2022-09-09T19:52:48;16.40;99.90
70145;DHT22;57510;51.068;3.872;2022-09-09T19:55:26;16.30;99.90
70145;DHT22;57510;51.068;3.872;2022-09-09T19:57:51;16.30;99.90
70145;DHT22;57510;51.068;3.872;2022-09-09T20:00:17;16.30;99.90
70145;DHT22;57510;51.068;3.872;2022-09-09T20:02:45;16.30;99.90
70145;DHT22;57510;51.068;3.872;2022-09-09T20:05:27;16.30;99.90
70145;DHT22;57510;51.068;3.872;2022-09-09T20:07:55;16.30;99.90
70145;DHT22;57510;51.068;3.872;2022-09-09T20:10:24;16.30;99.90
70145;DHT22;57510;51.068;3.872;2022-09-09T20:13:01;16.30;99.90
70145;DHT22;57510;51.068;3.872;2022-09-09T20:15:28;16.30;99.90
70145;DHT22;57510;51.068;3.872;2022-09-09T20:17:54;16.30;99.90
70145;DHT22;57510;51.068;3.872;2022-09-09T20:20:20;16.30;99.90
70145;DHT22;57510;51.068;3.872;2022-09-09T20:22:48;16.30;99.90
70145;DHT22;57510;51.068;3.872;2022-09-09T20:25:24;16.30;99.90
70145;DHT22;57510;51.068;3.872;2022-09-09T20:27:52;16.30;99.90
70145;DHT22;57510;51.068;3.872;2022-09-09T20:30:33;16.30;99.90
70145;DHT22;57510;51.068;3.872;2022-09-09T20:33:03;16.40;99.90
70145;DHT22;57510;51.068;3.872;2022-09-09T20:35:29;16.50;99.90
70145;DHT22;57510;51.068;3.872;2022-09-09T20:37:59;16.50;99.90
70145;DHT22;57510;51.068;3.872;2022-09-09T20:40:28;16.50;99.90
70145;DHT22;57510;51.068;3.872;2022-09-09T20:43:04;16.50;99.90
70145;DHT22;57510;51.068;3.872;2022-09-09T20:45:34;16.50;99.90
70145;DHT22;57510;51.068;3.872;2022-09-09T20:48:24;16.60;99.90
70145;DHT22;57510;51.068;3.872;2022-09-09T20:50:51;16.50;99.90
70145;DHT22;57510;51.068;3.872;2022-09-09T20:53:17;16.50;99.90
70145;DHT22;57510;51.068;3.872;2022-09-09T20:55:45;16.60;99.90
70145;DHT22;57510;51.068;3.872;2022-09-09T20:58:15;16.50;99.90
70145;DHT22;57510;51.068;3.872;2022-09-09T21:00:41;16.50;99.90
70145;DHT22;57510;51.068;3.872;2022-09-09T21:03:11;16.50;99.90
70145;DHT22;57510;51.068;3.872;2022-09-09T21:05:37;16.50;99.90
70145;DHT22;57510;51.068;3.872;2022-09-09T21:08:11;16.50;99.90
70145;DHT22;57510;51.068;3.872;2022-09-09T21:10:43;16.40;99.90
70145;DHT22;57510;51.068;3.872;2022-09-09T21:13:15;16.40;99.90
70145;DHT22;57510;51.068;3.872;2022-09-09T21:15:44;16.40;99.90
70145;DHT22;57510;51.068;3.872;2022-09-09T21:18:19;16.50;99.90
70145;DHT22;57510;51.068;3.872;2022-09-09T21:20:56;16.50;99.90
70145;DHT22;57510;51.068;3.872;2022-09-09T21:23:26;16.50;99.90
70145;DHT22;57510;51.068;3.872;2022-09-09T21:25:53;16.50;99.90
70145;DHT22;57510;51.068;3.872;2022-09-09T21:28:19;16.50;99.90
70145;DHT22;57510;51.068;3.872;2022-09-09T21:33:56;16.50;99.90
70145;DHT22;57510;51.068;3.872;2022-09-09T21:36:32;16.50;99.90
70145;DHT22;57510;51.068;3.872;2022-09-09T21:39:05;16.50;99.90
70145;DHT22;57510;51.068;3.872;2022-09-09T21:41:31;16.50;99.90
70145;DHT22;57510;51.068;3.872;2022-09-09T21:43:57;16.50;99.90
70145;DHT22;57510;51.068;3.872;2022-09-09T21:46:35;16.50;99.90
70145;DHT22;57510;51.068;3.872;2022-09-09T21:49:01;16.60;99.90
70145;DHT22;57510;51.068;3.872;2022-09-09T21:51:32;16.60;99.90
70145;DHT22;57510;51.068;3.872;2022-09-09T21:53:58;16.60;99.90
70145;DHT22;57510;51.068;3.872;2022-09-09T21:56:25;16.60;99.90
70145;DHT22;57510;51.068;3.872;2022-09-09T21:59:06;16.70;99.90
70145;DHT22;57510;51.068;3.872;2022-09-09T22:01:35;16.70;99.90
70145;DHT22;57510;51.068;3.872;2022-09-09T22:04:01;16.70;99.90